sensor_id;sensor_type;location;lat;lon;timestamp;pressure;altitude;pressure_sealevel;temperature;humidity
8515;BME280;4295;51.024;7.000;2022-10-16T00:00:31;15603.22;;;-32.41;100.00
8515;BME280;4295;51.024;7.000;2022-10-16T00:02:57;15602.69;;;-32.42;100.00
8515;BME280;4295;51.024;7.000;2022-10-16T00:05:23;16211.38;;;-32.42;100.00
8515;BME280;4295;51.024;7.000;2022-10-16T00:07:48;16209.97;;;-32.46;100.00
8515;BME280;4295;51.024;7.000;2022-10-16T00:10:13;16208.91;;;-32.49;100.00
8515;BME280;4295;51.024;7.000;2022-10-16T00:12:39;15904.41;;;-32.50;100.00
8515;BME280;4295;51.024;7.000;2022-10-16T00:15:05;15603.56;;;-32.40;100.00
8515;BME280;4295;51.024;7.000;2022-10-16T00:17:31;15598.88;;;-32.53;100.00
8515;BME280;4295;51.024;7.000;2022-10-16T00:19:56;15601.13;;;-32.47;100.00
8515;BME280;4295;51.024;7.000;2022-10-16T00:22:22;15293.28;;;-32.57;100.00
8515;BME280;4295;51.024;7.000;2022-10-16T00:24:47;15296.50;;;-32.48;100.00
8515;BME280;4295;51.024;7.000;2022-10-16T00:27:13;14994.59;;;-32.41;100.00
8515;BME280;4295;51.024;7.000;2022-10-16T00:29:38;14997.63;;;-32.31;100.00
8515;BME280;4295;51.024;7.000;2022-10-16T00:32:03;15299.56;;;-32.39;100.00
8515;BME280;4295;51.024;7.000;2022-10-16T00:34:29;15301.97;;;-32.31;100.00
8515;BME280;4295;51.024;7.000;2022-10-16T00:36:54;15303.16;;;-32.28;100.00
8515;BME280;4295;51.024;7.000;2022-10-16T00:39:19;15302.47;;;-32.30;100.00
8515;BME280;4295;51.024;7.000;2022-10-16T00:41:45;15310.13;;;-32.07;100.00
8515;BME280;4295;51.024;7.000;2022-10-16T00:47:09;15918.25;;;-32.10;100.00
8515;BME280;4295;51.024;7.000;2022-10-16T00:49:35;16225.09;;;-32.03;100.00
8515;BME280;4295;51.024;7.000;2022-10-16T00:52:01;16530.06;;;-32.02;100.00
8515;BME280;4295;51.024;7.000;2022-10-16T00:54:28;16531.50;;;-31.98;100.00
8515;BME280;4295;51.024;7.000;2022-10-16T00:56:55;16528.78;;;-32.06;100.00
8515;BME280;4295;51.024;7.000;2022-10-16T00:59:37;16532.56;;;-31.95;100.00
8515;BME280;4295;51.024;7.000;2022-10-16T01:02:06;16523.00;;;-32.22;100.00
8515;BME280;4295;51.024;7.000;2022-10-16T01:04:37;16822.94;;;-32.34;100.00
8515;BME280;4295;51.024;7.000;2022-10-16T01:12:33;17436.84;;;-32.21;100.00
8515;BME280;4295;51.024;7.000;2022-10-16T01:20:37;17444.75;;;-32.00;100.00
8515;BME280;4295;51.024;7.000;2022-10-16T01:23:10;17138.59;;;-32.04;100.00
8515;BME280;4295;51.024;7.000;2022-10-16T01:28:51;17145.66;;;-31.85;100.00
8515;BME280;4295;51.024;7.000;2022-10-16T01:31:20;17449.47;;;-31.88;100.00
8515;BME280;4295;51.024;7.000;2022-10-16T01:33:52;17446.47;;;-31.96;100.00
8515;BME280;4295;51.024;7.000;2022-10-16T01:36:24;17450.97;;;-31.84;100.00
8515;BME280;4295;51.024;7.000;2022-10-16T01:38:54;17446.09;;;-31.97;100.00
8515;BME280;4295;51.024;7.000;2022-10-16T01:41:27;17444.59;;;-32.01;100.00
8515;BME280;4295;51.024;7.000;2022-10-16T01:44:24;17751.59;;;-31.95;100.00
8515;BME280;4295;51.024;7.000;2022-10-16T01:46:50;18050.16;;;-32.11;100.00
8515;BME280;4295;51.024;7.000;2022-10-16T01:49:17;17748.91;;;-32.02;100.00
8515;BME280;4295;51.024;7.000;2022-10-16T01:51:45;17750.25;;;-31.98;100.00
8515;BME280;4295;51.024;7.000;2022-10-16T01:54:13;17747.19;;;-32.06;100.00
8515;BME280;4295;51.024;7.000;2022-10-16T01:56:40;17142.13;;;-31.95;100.00
8515;BME280;4295;51.024;7.000;2022-10-16T01:59:11;17142.69;;;-31.93;100.00
8515;BME280;4295;51.024;7.000;2022-10-16T02:01:40;16836.50;;;-31.97;100.00
8515;BME280;4295;51.024;7.000;2022-10-16T02:07:02;16540.72;;;-31.72;100.00
8515;BME280;4295;51.024;7.000;2022-10-16T02:09:29;16543.44;;;-31.65;100.00
8515;BME280;4295;51.024;7.000;2022-10-16T02:11:58;16549.22;;;-31.49;100.00
8515;BME280;4295;51.024;7.000;2022-10-16T02:14:28;16553.38;;;-31.37;100.00
8515;BME280;4295;51.024;7.000;2022-10-16T02:16:54;16548.31;;;-31.51;100.00
8515;BME280;4295;51.024;7.000;2022-10-16T02:19:21;16547.06;;;-31.55;100.00
8515;BME280;4295;51.024;7.000;2022-10-16T02:24:26;16249.69;;;-31.34;100.00
8515;BME280;4295;51.024;7.000;2022-10-16T02:29:45;15944.59;;;-31.34;100.00
8515;BME280;4295;51.024;7.000;2022-10-16T02:32:17;15945.47;;;-31.32;100.00
8515;BME280;4295;51.024;7.000;2022-10-16T02:34:45;15945.13;;;-31.33;100.00
8515;BME280;4295;51.024;7.000;2022-10-16T02:37:11;15948.66;;;-31.23;100.00
8515;BME280;4295;51.024;7.000;2022-10-16T02:39:38;15943.00;;;-31.39;100.00
8515;BME280;4295;51.024;7.000;2022-10-16T02:42:04;15640.41;;;-31.32;100.00
8515;BME280;4295;51.024;7.000;2022-10-16T02:44:29;15645.59;;;-31.17;100.00
8515;BME280;4295;51.024;7.000;2022-10-16T02:46:55;15946.19;;;-31.30;100.00
8515;BME280;4295;51.024;7.000;2022-10-16T02:49:20;15945.31;;;-31.32;100.00
8515;BME280;4295;51.024;7.000;2022-10-16T02:51:45;16250.59;;;-31.31;100.00
8515;BME280;4295;51.024;7.000;2022-10-16T02:54:11;16249.53;;;-31.34;100.00
8515;BME280;4295;51.024;7.000;2022-10-16T02:56:36;15947.25;;;-31.27;100.00
8515;BME280;4295;51.024;7.000;2022-10-16T02:59:01;16257.91;;;-31.10;100.00
8515;BME280;4295;51.024;7.000;2022-10-16T03:01:27;16255.78;;;-31.16;100.00
8515;BME280;4295;51.024;7.000;2022-10-16T03:03:52;15949.69;;;-31.20;100.00
8515;BME280;4295;51.024;7.000;2022-10-16T03:06:18;15954.44;;;-31.06;100.00
8515;BME280;4295;51.024;7.000;2022-10-16T03:08:43;15954.81;;;-31.05;100.00
8515;BME280;4295;51.024;7.000;2022-10-16T03:11:08;15954.09;;;-31.07;100.00
8515;BME280;4295;51.024;7.000;2022-10-16T03:13:34;16258.63;;;-31.08;100.00
8515;BME280;4295;51.024;7.000;2022-10-16T03:15:59;16264.34;;;-30.92;100.00
8515;BME280;4295;51.024;7.000;2022-10-16T03:18:24;15956.75;;;-30.99;100.00
8515;BME280;4295;51.024;7.000;2022-10-16T03:20:50;16265.75;;;-30.88;100.00
8515;BME280;4295;51.024;7.000;2022-10-16T03:23:15;16569.50;;;-30.92;100.00
8515;BME280;4295;51.024;7.000;2022-10-16T03:25:40;16568.41;;;-30.95;100.00
8515;BME280;4295;51.024;7.000;2022-10-16T03:28:06;16868.25;;;-31.10;100.00
8515;BME280;4295;51.024;7.000;2022-10-16T03:30:31;17176.53;;;-31.01;100.00
8515;BME280;4295;51.024;7.000;2022-10-16T03:32:57;17481.94;;;-31.01;100.00
8515;BME280;4295;51.024;7.000;2022-10-16T03:35:23;17787.16;;;-31.01;100.00
8515;BME280;4295;51.024;7.000;2022-10-16T03:37:49;18089.13;;;-31.09;100.00
8515;BME280;4295;51.024;7.000;2022-10-16T03:40:15;18093.59;;;-30.98;100.00
8515;BME280;4295;51.024;7.000;2022-10-16T03:42:42;18091.06;;;-31.04;100.00
8515;BME280;4295;51.024;7.000;2022-10-16T03:45:08;18098.25;;;-30.86;100.00
8515;BME280;4295;51.024;7.000;2022-10-16T03:47:33;17791.00;;;-30.91;100.00
8515;BME280;4295;51.024;7.000;2022-10-16T03:49:59;18100.78;;;-30.79;100.00
8515;BME280;4295;51.024;7.000;2022-10-16T03:52:25;18099.81;;;-30.82;100.00
8515;BME280;4295;51.024;7.000;2022-10-16T03:54:51;18099.03;;;-30.84;100.00
8515;BME280;4295;51.024;7.000;2022-10-16T03:57:16;18105.63;;;-30.67;100.00
8515;BME280;4295;51.024;7.000;2022-10-16T03:59:42;18404.78;;;-30.83;100.00
8515;BME280;4295;51.024;7.000;2022-10-16T04:02:07;18406.16;;;-30.79;100.00
8515;BME280;4295;51.024;7.000;2022-10-16T04:04:33;18403.22;;;-30.87;100.00
8515;BME280;4295;51.024;7.000;2022-10-16T04:06:58;18099.22;;;-30.83;100.00
8515;BME280;4295;51.024;7.000;2022-10-16T04:09:23;18100.97;;;-30.79;100.00
8515;BME280;4295;51.024;7.000;2022-10-16T04:11:49;18107.38;;;-30.62;100.00
8515;BME280;4295;51.024;7.000;2022-10-16T04:14:14;17498.38;;;-30.57;100.00
8515;BME280;4295;51.024;7.000;2022-10-16T04:16:39;17205.06;;;-30.24;100.00
8515;BME280;4295;51.024;7.000;2022-10-16T04:19:05;17203.56;;;-30.28;100.00
8515;BME280;4295;51.024;7.000;2022-10-16T04:21:30;17207.50;;;-30.18;100.00
8515;BME280;4295;51.024;7.000;2022-10-16T04:23:55;16899.31;;;-30.25;100.00
8515;BME280;4295;51.024;7.000;2022-10-16T04:26:21;16596.69;;;-30.17;100.00
8515;BME280;4295;51.024;7.000;2022-10-16T04:28:46;16594.16;;;-30.24;100.00
8515;BME280;4295;51.024;7.000;2022-10-16T04:31:11;16603.97;;;-29.96;100.00
8515;BME280;4295;51.024;7.000;2022-10-16T04:33:37;16603.41;;;-29.98;100.00
8515;BME280;4295;51.024;7.000;2022-10-16T04:36:03;16603.59;;;-29.97;100.00
8515;BME280;4295;51.024;7.000;2022-10-16T04:38:28;16602.69;;;-30.00;100.00
8515;BME280;4295;51.024;7.000;2022-10-16T04:40:54;16605.03;;;-29.93;100.00
8515;BME280;4295;51.024;7.000;2022-10-16T04:43:20;16605.78;;;-29.91;100.00
8515;BME280;4295;51.024;7.000;2022-10-16T04:45:46;16907.78;;;-30.02;100.00
8515;BME280;4295;51.024;7.000;2022-10-16T04:48:11;17209.56;;;-30.12;100.00
8515;BME280;4295;51.024;7.000;2022-10-16T04:50:36;16910.38;;;-29.94;100.00
8515;BME280;4295;51.024;7.000;2022-10-16T04:53:02;17206.94;;;-30.19;100.00
8515;BME280;4295;51.024;7.000;2022-10-16T04:55:27;17210.69;;;-30.09;100.00
8515;BME280;4295;51.024;7.000;2022-10-16T04:57:52;17516.16;;;-30.10;100.00
8515;BME280;4295;51.024;7.000;2022-10-16T05:00:18;17823.78;;;-30.05;100.00
8515;BME280;4295;51.024;7.000;2022-10-16T05:02:43;17821.66;;;-30.10;100.00
8515;BME280;4295;51.024;7.000;2022-10-16T05:05:08;17823.78;;;-30.05;100.00
8515;BME280;4295;51.024;7.000;2022-10-16T05:07:34;17829.94;;;-29.88;100.00
8515;BME280;4295;51.024;7.000;2022-10-16T05:09:59;17832.03;;;-29.83;100.00
8515;BME280;4295;51.024;7.000;2022-10-16T05:12:24;18133.81;;;-29.93;100.00
8515;BME280;4295;51.024;7.000;2022-10-16T05:14:50;18141.78;;;-29.73;100.00
8515;BME280;4295;51.024;7.000;2022-10-16T05:17:15;18144.50;;;-29.66;100.00
8515;BME280;4295;51.024;7.000;2022-10-16T05:19:40;18449.72;;;-29.68;100.00
8515;BME280;4295;51.024;7.000;2022-10-16T05:22:06;18752.31;;;-29.76;100.00
8515;BME280;4295;51.024;7.000;2022-10-16T05:24:31;18752.09;;;-29.77;100.00
8515;BME280;4295;51.024;7.000;2022-10-16T05:26:57;18750.31;;;-29.81;100.00
8515;BME280;4295;51.024;7.000;2022-10-16T05:29:22;19059.72;;;-29.73;100.00
8515;BME280;4295;51.024;7.000;2022-10-16T05:31:50;19061.94;;;-29.67;100.00
8515;BME280;4295;51.024;7.000;2022-10-16T05:34:16;18754.91;;;-29.70;100.00
8515;BME280;4295;51.024;7.000;2022-10-16T05:36:42;18761.31;;;-29.54;100.00
8515;BME280;4295;51.024;7.000;2022-10-16T05:39:07;18450.69;;;-29.65;100.00
8515;BME280;4295;51.024;7.000;2022-10-16T05:41:33;18150.75;;;-29.50;100.00
8515;BME280;4295;51.024;7.000;2022-10-16T05:43:58;18454.84;;;-29.55;100.00
8515;BME280;4295;51.024;7.000;2022-10-16T05:46:23;18454.03;;;-29.57;100.00
8515;BME280;4295;51.024;7.000;2022-10-16T05:48:51;18148.22;;;-29.56;100.00
8515;BME280;4295;51.024;7.000;2022-10-16T05:51:17;18154.25;;;-29.40;100.00
8515;BME280;4295;51.024;7.000;2022-10-16T05:53:42;17852.78;;;-29.28;100.00
8515;BME280;4295;51.024;7.000;2022-10-16T05:56:10;17857.00;;;-29.17;100.00
8515;BME280;4295;51.024;7.000;2022-10-16T05:58:37;17854.72;;;-29.23;100.00
8515;BME280;4295;51.024;7.000;2022-10-16T06:01:05;17856.44;;;-29.19;100.00
8515;BME280;4295;51.024;7.000;2022-10-16T06:03:32;18161.25;;;-29.22;100.00
8515;BME280;4295;51.024;7.000;2022-10-16T06:05:57;18168.66;;;-29.03;100.00
8515;BME280;4295;51.024;7.000;2022-10-16T06:08:23;18162.03;;;-29.20;100.00
8515;BME280;4295;51.024;7.000;2022-10-16T06:10:49;18461.94;;;-29.36;100.00
8515;BME280;4295;51.024;7.000;2022-10-16T06:13:24;18465.28;;;-29.28;100.00
8515;BME280;4295;51.024;7.000;2022-10-16T06:15:50;18466.09;;;-29.26;100.00
8515;BME280;4295;51.024;7.000;2022-10-16T06:18:15;18466.47;;;-29.25;100.00
8515;BME280;4295;51.024;7.000;2022-10-16T06:20:40;18465.09;;;-29.28;100.00
8515;BME280;4295;51.024;7.000;2022-10-16T06:23:06;18466.47;;;-29.25;100.00
8515;BME280;4295;51.024;7.000;2022-10-16T06:25:31;18471.03;;;-29.13;100.00
8515;BME280;4295;51.024;7.000;2022-10-16T06:27:57;18779.69;;;-29.07;100.00
8515;BME280;4295;51.024;7.000;2022-10-16T06:30:22;18476.16;;;-29.00;100.00
8515;BME280;4295;51.024;7.000;2022-10-16T06:32:47;18474.19;;;-29.05;100.00
8515;BME280;4295;51.024;7.000;2022-10-16T06:35:13;18478.34;;;-28.95;100.00
8515;BME280;4295;51.024;7.000;2022-10-16T06:37:38;18475.75;;;-29.01;100.00
8515;BME280;4295;51.024;7.000;2022-10-16T06:40:04;18174.72;;;-28.88;100.00
8515;BME280;4295;51.024;7.000;2022-10-16T06:42:30;17869.50;;;-28.85;100.00
8515;BME280;4295;51.024;7.000;2022-10-16T06:44:55;17566.59;;;-28.75;100.00
8515;BME280;4295;51.024;7.000;2022-10-16T06:47:21;17263.03;;;-28.68;100.00
8515;BME280;4295;51.024;7.000;2022-10-16T06:49:46;16962.38;;;-28.52;100.00
8515;BME280;4295;51.024;7.000;2022-10-16T06:52:11;16963.69;;;-28.49;100.00
8515;BME280;4295;51.024;7.000;2022-10-16T06:54:37;16966.44;;;-28.41;100.00
8515;BME280;4295;51.024;7.000;2022-10-16T06:57:02;16661.78;;;-28.36;100.00
8515;BME280;4295;51.024;7.000;2022-10-16T06:59:27;16358.91;;;-28.26;100.00
8515;BME280;4295;51.024;7.000;2022-10-16T07:01:53;16362.69;;;-28.15;100.00
8515;BME280;4295;51.024;7.000;2022-10-16T07:04:18;16059.13;;;-28.07;100.00
8515;BME280;4295;51.024;7.000;2022-10-16T07:06:43;16060.72;;;-28.02;100.00
8515;BME280;4295;51.024;7.000;2022-10-16T07:09:10;16061.44;;;-28.00;100.00
8515;BME280;4295;51.024;7.000;2022-10-16T07:11:38;16063.19;;;-27.95;100.00
8515;BME280;4295;51.024;7.000;2022-10-16T07:14:04;15763.22;;;-27.76;100.00
8515;BME280;4295;51.024;7.000;2022-10-16T07:16:32;15153.06;;;-27.67;100.00
8515;BME280;4295;51.024;7.000;2022-10-16T07:18:59;15163.41;;;-27.36;100.00
8515;BME280;4295;51.024;7.000;2022-10-16T07:21:26;14554.97;;;-27.20;100.00
8515;BME280;4295;51.024;7.000;2022-10-16T07:23:55;14559.91;;;-27.04;100.00
8515;BME280;4295;51.024;7.000;2022-10-16T07:26:22;14871.25;;;-26.91;100.00
8515;BME280;4295;51.024;7.000;2022-10-16T07:28:48;15175.63;;;-26.99;100.00
8515;BME280;4295;51.024;7.000;2022-10-16T07:31:14;15183.75;;;-26.75;100.00
8515;BME280;4295;51.024;7.000;2022-10-16T07:33:42;16105.06;;;-26.76;100.00
8515;BME280;4295;51.024;7.000;2022-10-16T07:36:10;16106.31;;;-26.73;100.00
8515;BME280;4295;51.024;7.000;2022-10-16T07:38:35;16417.59;;;-26.62;100.00
8515;BME280;4295;51.024;7.000;2022-10-16T07:41:03;17035.53;;;-26.53;100.00
8515;BME280;4295;51.024;7.000;2022-10-16T07:43:30;17037.00;;;-26.49;100.00
8515;BME280;4295;51.024;7.000;2022-10-16T07:45:55;17960.19;;;-26.48;100.00
8515;BME280;4295;51.024;7.000;2022-10-16T07:48:22;18881.63;;;-26.51;100.00
8515;BME280;4295;51.024;7.000;2022-10-16T07:50:48;19494.50;;;-26.57;100.00
8515;BME280;4295;51.024;7.000;2022-10-16T07:53:14;20415.94;;;-26.61;100.00
8515;BME280;4295;51.024;7.000;2022-10-16T07:55:40;20723.47;;;-26.62;100.00
8515;BME280;4295;51.024;7.000;2022-10-16T07:58:05;21029.72;;;-26.65;100.00
8515;BME280;4295;51.024;7.000;2022-10-16T08:00:31;21337.75;;;-26.65;100.00
8515;BME280;4295;51.024;7.000;2022-10-16T08:02:57;21339.97;;;-26.60;100.00
8515;BME280;4295;51.024;7.000;2022-10-16T08:05:26;21646.47;;;-26.63;100.00
8515;BME280;4295;51.024;7.000;2022-10-16T08:07:52;20732.38;;;-26.41;100.00
8515;BME280;4295;51.024;7.000;2022-10-16T08:10:18;20729.78;;;-26.47;100.00
8515;BME280;4295;51.024;7.000;2022-10-16T08:12:44;20431.38;;;-26.25;100.00
8515;BME280;4295;51.024;7.000;2022-10-16T08:15:09;20437.59;;;-26.10;100.00
8515;BME280;4295;51.024;7.000;2022-10-16T08:17:35;20750.81;;;-25.98;100.00
8515;BME280;4295;51.024;7.000;2022-10-16T08:20:00;21369.50;;;-25.93;100.00
8515;BME280;4295;51.024;7.000;2022-10-16T08:22:26;21684.22;;;-25.78;100.00
8515;BME280;4295;51.024;7.000;2022-10-16T08:24:52;22313.06;;;-25.51;100.00
8515;BME280;4295;51.024;7.000;2022-10-16T08:27:17;22320.88;;;-25.34;100.00
8515;BME280;4295;51.024;7.000;2022-10-16T08:29:42;22944.91;;;-25.19;100.00
8515;BME280;4295;51.024;7.000;2022-10-16T08:32:08;23566.47;;;-25.11;100.00
8515;BME280;4295;51.024;7.000;2022-10-16T08:34:33;24499.25;;;-24.98;100.00
8515;BME280;4295;51.024;7.000;2022-10-16T08:36:59;27600.38;;;-24.80;100.00
8515;BME280;4295;51.024;7.000;2022-10-16T08:39:25;31010.91;;;-24.69;100.00
8515;BME280;4295;51.024;7.000;2022-10-16T08:44:53;36909.72;;;-24.56;100.00
8515;BME280;4295;51.024;7.000;2022-10-16T08:47:33;37849.50;;;-24.44;100.00
8515;BME280;4295;51.024;7.000;2022-10-16T08:50:08;38473.09;;;-24.41;100.00
8515;BME280;4295;51.024;7.000;2022-10-16T08:52:35;41270.34;;;-24.39;100.00
8515;BME280;4295;51.024;7.000;2022-10-16T08:55:05;42525.88;;;-24.24;100.00
8515;BME280;4295;51.024;7.000;2022-10-16T08:57:30;43467.22;;;-24.14;100.00
8515;BME280;4295;51.024;7.000;2022-10-16T09:00:00;48446.97;;;-24.17;100.00
8515;BME280;4295;51.024;7.000;2022-10-16T09:05:23;52229.34;;;-23.74;100.00
8515;BME280;4295;51.024;7.000;2022-10-16T09:11:37;63496.38;;;-23.65;100.00
8515;BME280;4295;51.024;7.000;2022-10-16T09:14:22;67587.06;;;-23.51;100.00
8515;BME280;4295;51.024;7.000;2022-10-16T09:17:12;70116.66;;;-23.36;100.00
8515;BME280;4295;51.024;7.000;2022-10-16T09:19:48;76092.09;;;-23.33;100.00
8515;BME280;4295;51.024;7.000;2022-10-16T09:22:16;81136.94;;;-23.28;100.00
8515;BME280;4295;51.024;7.000;2022-10-16T09:24:43;94418.66;;;-23.14;100.00
8515;BME280;4295;51.024;7.000;2022-10-16T09:27:11;103306.16;;;-23.04;100.00
8515;BME280;4295;51.024;7.000;2022-10-16T09:29:36;103329.28;;;-22.91;100.00
8515;BME280;4295;51.024;7.000;2022-10-16T09:32:28;115760.22;;;-22.74;100.00
8515;BME280;4295;51.024;7.000;2022-10-16T09:34:55;133450.03;;;-22.63;100.00
8515;BME280;4295;51.024;7.000;2022-10-16T09:37:24;129858.72;;;-22.49;100.00
8515;BME280;4295;51.024;7.000;2022-10-16T09:39:52;113286.81;;;-22.37;100.00
8515;BME280;4295;51.024;7.000;2022-10-16T09:42:23;125419.59;;;-22.32;100.00
8515;BME280;4295;51.024;7.000;2022-10-16T09:44:51;135937.72;;;-22.13;100.00
8515;BME280;4295;51.024;7.000;2022-10-16T09:47:21;134624.47;;;-21.73;100.00
8515;BME280;4295;51.024;7.000;2022-10-16T09:50:28;139496.63;;;-21.06;100.00
8515;BME280;4295;51.024;7.000;2022-10-16T09:55:29;139713.16;;;-20.18;100.00
8515;BME280;4295;51.024;7.000;2022-10-16T09:57:55;139725.53;;;-20.13;100.00
8515;BME280;4295;51.024;7.000;2022-10-16T10:00:22;139719.34;;;-20.15;100.00
8515;BME280;4295;51.024;7.000;2022-10-16T10:02:48;139729.25;;;-20.11;100.00
8515;BME280;4295;51.024;7.000;2022-10-16T10:05:22;139714.41;;;-20.17;100.00
8515;BME280;4295;51.024;7.000;2022-10-16T10:07:58;139759.00;;;-19.99;100.00
8515;BME280;4295;51.024;7.000;2022-10-16T10:10:30;139767.63;;;-19.95;100.00
8515;BME280;4295;51.024;7.000;2022-10-16T10:12:56;139825.84;;;-19.72;100.00
8515;BME280;4295;51.024;7.000;2022-10-16T10:15:22;139854.34;;;-19.60;100.00
8515;BME280;4295;51.024;7.000;2022-10-16T10:17:55;139815.97;;;-19.76;100.00
8515;BME280;4295;51.024;7.000;2022-10-16T10:20:30;139900.22;;;-19.41;100.00
8515;BME280;4295;51.024;7.000;2022-10-16T10:22:59;139939.84;;;-19.25;100.00
8515;BME280;4295;51.024;7.000;2022-10-16T10:25:42;139985.69;;;-19.07;100.00
8515;BME280;4295;51.024;7.000;2022-10-16T10:36:53;139846.91;;;-19.63;100.00
8515;BME280;4295;51.024;7.000;2022-10-16T10:39:25;139860.56;;;-19.58;100.00
8515;BME280;4295;51.024;7.000;2022-10-16T10:44:52;139879.16;;;-19.50;100.00
8515;BME280;4295;51.024;7.000;2022-10-16T11:05:56;140093.56;;;-18.63;100.00
8515;BME280;4295;51.024;7.000;2022-10-16T11:11:10;140302.00;;;-17.78;100.00
8515;BME280;4295;51.024;7.000;2022-10-16T11:13:57;140216.34;;;-18.13;100.00
8515;BME280;4295;51.024;7.000;2022-10-16T11:16:28;140200.22;;;-18.19;100.00
8515;BME280;4295;51.024;7.000;2022-10-16T11:21:49;140197.75;;;-18.20;100.00
8515;BME280;4295;51.024;7.000;2022-10-16T11:24:22;140035.28;;;-18.86;100.00
8515;BME280;4295;51.024;7.000;2022-10-16T11:26:49;140037.78;;;-18.85;100.00
8515;BME280;4295;51.024;7.000;2022-10-16T11:29:21;140045.22;;;-18.82;100.00
8515;BME280;4295;51.024;7.000;2022-10-16T11:31:56;140118.41;;;-18.53;100.00
8515;BME280;4295;51.024;7.000;2022-10-16T11:39:30;140237.47;;;-18.04;100.00
8515;BME280;4295;51.024;7.000;2022-10-16T11:42:37;140396.34;;;-17.40;100.00
8515;BME280;4295;51.024;7.000;2022-10-16T11:56:05;140616.28;;;-16.50;100.00
8515;BME280;4295;51.024;7.000;2022-10-16T12:04:16;140448.53;;;-17.19;100.00
8515;BME280;4295;51.024;7.000;2022-10-16T12:09:30;140328.09;;;-17.67;100.00
8515;BME280;4295;51.024;7.000;2022-10-16T12:11:56;140349.22;;;-17.59;100.00
8515;BME280;4295;51.024;7.000;2022-10-16T12:16:51;140355.41;;;-17.56;100.00
8515;BME280;4295;51.024;7.000;2022-10-16T12:19:17;140422.47;;;-17.29;100.00
8515;BME280;4295;51.024;7.000;2022-10-16T12:21:43;140411.25;;;-17.34;100.00
8515;BME280;4295;51.024;7.000;2022-10-16T12:26:54;140349.22;;;-17.59;100.00
8515;BME280;4295;51.024;7.000;2022-10-16T12:29:26;140308.25;;;-17.76;100.00
8515;BME280;4295;51.024;7.000;2022-10-16T12:31:54;140236.22;;;-18.05;100.00
8515;BME280;4295;51.024;7.000;2022-10-16T12:36:47;140257.34;;;-17.96;100.00
8515;BME280;4295;51.024;7.000;2022-10-16T12:39:24;140280.91;;;-17.87;100.00
8515;BME280;4295;51.024;7.000;2022-10-16T12:44:54;140279.66;;;-17.87;100.00
8515;BME280;4295;51.024;7.000;2022-10-16T12:47:22;140297.06;;;-17.80;100.00
8515;BME280;4295;51.024;7.000;2022-10-16T12:49:50;140325.63;;;-17.68;100.00
8515;BME280;4295;51.024;7.000;2022-10-16T12:54:59;140397.59;;;-17.39;100.00
8515;BME280;4295;51.024;7.000;2022-10-16T13:30:00;140257.34;;;-17.96;100.00
8515;BME280;4295;51.024;7.000;2022-10-16T13:32:26;140215.09;;;-18.13;100.00
8515;BME280;4295;51.024;7.000;2022-10-16T13:34:52;140218.84;;;-18.12;100.00
8515;BME280;4295;51.024;7.000;2022-10-16T13:37:21;140212.66;;;-18.14;100.00
8515;BME280;4295;51.024;7.000;2022-10-16T13:39:47;140278.44;;;-17.88;100.00
8515;BME280;4295;51.024;7.000;2022-10-16T13:42:23;140293.34;;;-17.82;100.00
8515;BME280;4295;51.024;7.000;2022-10-16T13:44:52;140352.91;;;-17.57;100.00
8515;BME280;4295;51.024;7.000;2022-10-16T13:47:20;140377.72;;;-17.47;100.00
8515;BME280;4295;51.024;7.000;2022-10-16T13:49:46;140393.88;;;-17.41;100.00
8515;BME280;4295;51.024;7.000;2022-10-16T13:52:18;140482.06;;;-17.05;100.00
8515;BME280;4295;51.024;7.000;2022-10-16T13:54:44;140472.16;;;-17.09;100.00
8515;BME280;4295;51.024;7.000;2022-10-16T13:57:14;140470.91;;;-17.09;100.00
8515;BME280;4295;51.024;7.000;2022-10-16T13:59:40;140382.69;;;-17.45;100.00
8515;BME280;4295;51.024;7.000;2022-10-16T14:02:26;140398.84;;;-17.39;100.00
8515;BME280;4295;51.024;7.000;2022-10-16T14:04:53;140423.72;;;-17.29;100.00
8515;BME280;4295;51.024;7.000;2022-10-16T14:07:31;140452.28;;;-17.17;100.00
8515;BME280;4295;51.024;7.000;2022-10-16T14:10:00;140464.69;;;-17.12;100.00
8515;BME280;4295;51.024;7.000;2022-10-16T14:12:26;140506.94;;;-16.95;100.00
8515;BME280;4295;51.024;7.000;2022-10-16T14:14:53;140516.88;;;-16.91;100.00
8515;BME280;4295;51.024;7.000;2022-10-16T14:17:20;140448.53;;;-17.19;100.00
8515;BME280;4295;51.024;7.000;2022-10-16T14:19:49;140319.41;;;-17.71;100.00
8515;BME280;4295;51.024;7.000;2022-10-16T14:22:27;140257.34;;;-17.96;100.00
8515;BME280;4295;51.024;7.000;2022-10-16T14:24:53;140275.94;;;-17.89;100.00
8515;BME280;4295;51.024;7.000;2022-10-16T14:27:36;140295.81;;;-17.81;100.00
8515;BME280;4295;51.024;7.000;2022-10-16T14:32:40;140293.34;;;-17.82;100.00
8515;BME280;4295;51.024;7.000;2022-10-16T14:35:22;140279.66;;;-17.87;100.00
8515;BME280;4295;51.024;7.000;2022-10-16T14:37:51;140282.16;;;-17.86;100.00
8515;BME280;4295;51.024;7.000;2022-10-16T14:40:18;140299.56;;;-17.79;100.00
8515;BME280;4295;51.024;7.000;2022-10-16T14:42:44;140298.31;;;-17.80;100.00
8515;BME280;4295;51.024;7.000;2022-10-16T14:45:10;140310.69;;;-17.75;100.00
8515;BME280;4295;51.024;7.000;2022-10-16T14:47:47;140283.41;;;-17.86;100.00
8515;BME280;4295;51.024;7.000;2022-10-16T14:50:13;140278.44;;;-17.88;100.00
8515;BME280;4295;51.024;7.000;2022-10-16T14:52:39;140258.56;;;-17.96;100.00
8515;BME280;4295;51.024;7.000;2022-10-16T14:55:04;140254.84;;;-17.97;100.00
8515;BME280;4295;51.024;7.000;2022-10-16T14:57:33;140273.47;;;-17.90;100.00
8515;BME280;4295;51.024;7.000;2022-10-16T15:00:01;140299.56;;;-17.79;100.00
8515;BME280;4295;51.024;7.000;2022-10-16T15:02:34;140297.06;;;-17.80;100.00
8515;BME280;4295;51.024;7.000;2022-10-16T15:05:12;140310.69;;;-17.75;100.00
8515;BME280;4295;51.024;7.000;2022-10-16T15:07:38;140299.56;;;-17.79;100.00
8515;BME280;4295;51.024;7.000;2022-10-16T15:10:03;140292.09;;;-17.82;100.00
8515;BME280;4295;51.024;7.000;2022-10-16T15:12:29;140285.91;;;-17.85;100.00
8515;BME280;4295;51.024;7.000;2022-10-16T15:14:54;140249.91;;;-17.99;100.00
8515;BME280;4295;51.024;7.000;2022-10-16T15:17:19;140222.56;;;-18.10;100.00
8515;BME280;4295;51.024;7.000;2022-10-16T15:19:45;140208.91;;;-18.16;100.00
8515;BME280;4295;51.024;7.000;2022-10-16T15:22:11;140199.00;;;-18.20;100.00
8515;BME280;4295;51.024;7.000;2022-10-16T15:24:37;140201.47;;;-18.19;100.00
8515;BME280;4295;51.024;7.000;2022-10-16T15:27:03;140199.00;;;-18.20;100.00